Check out our new BloomSky Weather System.

Active alerts


No alerts


Thunder radar  blitzortung!


Rain radar more information rain snow radar


Visit our other weather sites:

Template documentation
and downloads

And another site



Weather Underground History page Text

Daily Summary for November 21, 2017 Units:  English    Metric   Both
« Previous Day
Next Day »
Daily Weekly Monthly Yearly Custom
  High: Low: Average:
Temperature: 77.2 °F 50.7 °F 63.6 °F
Dew Point: 65.3 °F 47.7 °F 58.4 °F
Humidity: 93 % 63 % 84 %
Wind Speed: 8.0 mph 0.0 mph 1.2 mph
Wind Gust: 12.0 mph - -
Wind:- - SSE
Pressure: 30.07 in 29.85 in -
Precipitation: 0.00 in    
Historical Graphs
 
 
Tabular Data for November 21, 2017
Time Temperature Dew Point Pressure Wind Wind Speed Wind Gust Humidity Rainfall Rate (Hourly)
00:06 51.1 °F 48.0 °F 30.00 in Calm     89 % 0.00 in
00:11 50.9 °F 47.8 °F 30.00 in Calm     89 % 0.00 in
00:14 50.9 °F 47.8 °F 30.00 in Calm     89 % 0.00 in
00:16 50.7 °F 47.7 °F 30.00 in Calm     89 % 0.00 in
00:21 50.7 °F 47.8 °F 29.99 in Calm     90 % 0.00 in
00:31 50.7 °F 47.8 °F 29.99 in Calm   1.0 mph 90 % 0.00 in
00:36 50.7 °F 47.8 °F 29.99 in Calm   1.0 mph 90 % 0.00 in
00:41 50.7 °F 47.8 °F 29.99 in Calm   1.0 mph 90 % 0.00 in
00:51 51.1 °F 48.2 °F 29.99 in Calm   1.0 mph 90 % 0.00 in
00:56 51.1 °F 48.2 °F 29.99 in Calm   1.0 mph 90 % 0.00 in
01:01 51.1 °F 48.2 °F 29.99 in Calm   1.0 mph 90 % 0.00 in
01:11 50.7 °F 47.7 °F 29.98 in Calm   1.0 mph 89 % 0.00 in
01:16 50.7 °F 47.8 °F 29.98 in Calm   1.0 mph 90 % 0.00 in
01:21 50.7 °F 47.8 °F 29.98 in Calm   1.0 mph 90 % 0.00 in
01:31 50.7 °F 47.8 °F 29.97 in Calm   1.0 mph 90 % 0.00 in
01:56 51.1 °F 48.2 °F 29.96 in Calm   2.0 mph 90 % 0.00 in
02:06 51.4 °F 48.4 °F 29.96 in Calm   1.0 mph 89 % 0.00 in
02:26 52.2 °F 48.7 °F 29.95 in Calm   3.0 mph 88 % 0.00 in
02:31 52.3 °F 48.9 °F 29.94 in Calm   3.0 mph 88 % 0.00 in
02:36 52.5 °F 49.1 °F 29.94 in Calm   2.0 mph 88 % 0.00 in
02:41 52.5 °F 49.1 °F 29.94 in ESE 1.0 mph 2.0 mph 88 % 0.00 in
02:46 52.9 °F 49.5 °F 29.94 in Calm   1.0 mph 88 % 0.00 in
02:51 52.9 °F 49.5 °F 29.94 in Calm   1.0 mph 88 % 0.00 in
02:58 52.9 °F 49.5 °F 29.93 in Calm   1.0 mph 88 % 0.00 in
03:03 53.1 °F 49.3 °F 29.93 in Calm   2.0 mph 87 % 0.00 in
03:08 53.2 °F 49.8 °F 29.94 in NNE 1.0 mph 2.0 mph 88 % 0.00 in
03:13 53.2 °F 49.8 °F 29.94 in Calm   2.0 mph 88 % 0.00 in
03:18 53.4 °F 49.6 °F 29.94 in Calm   1.0 mph 87 % 0.00 in
03:28 53.4 °F 49.6 °F 29.92 in Calm   1.0 mph 87 % 0.00 in
03:38 53.8 °F 50.4 °F 29.92 in Calm   1.0 mph 88 % 0.00 in
03:43 53.8 °F 50.4 °F 29.92 in Calm   1.0 mph 88 % 0.00 in
03:48 53.8 °F 50.4 °F 29.92 in Calm   1.0 mph 88 % 0.00 in
03:53 54.0 °F 50.5 °F 29.92 in Calm   1.0 mph 88 % 0.00 in
03:58 54.0 °F 50.5 °F 29.92 in Calm   1.0 mph 88 % 0.00 in
04:08 54.1 °F 50.7 °F 29.92 in Calm   1.0 mph 88 % 0.00 in
04:13 54.1 °F 50.7 °F 29.92 in Calm   1.0 mph 88 % 0.00 in
04:18 54.1 °F 50.7 °F 29.92 in East 1.0 mph 1.0 mph 88 % 0.00 in
04:23 54.3 °F 50.9 °F 29.92 in Calm   1.0 mph 88 % 0.00 in
04:28 54.3 °F 50.9 °F 29.92 in Calm   1.0 mph 88 % 0.00 in
04:33 54.3 °F 50.9 °F 29.92 in Calm   2.0 mph 88 % 0.00 in
04:43 54.7 °F 51.3 °F 29.92 in Calm   2.0 mph 88 % 0.00 in
04:48 54.7 °F 51.3 °F 29.92 in Calm   2.0 mph 88 % 0.00 in
04:54 54.9 °F 51.4 °F 29.92 in Calm   2.0 mph 88 % 0.00 in
04:59 54.9 °F 51.4 °F 29.93 in Calm   2.0 mph 88 % 0.00 in
05:09 55.0 °F 51.6 °F 29.92 in Calm   1.0 mph 88 % 0.00 in
05:14 55.0 °F 51.6 °F 29.91 in Calm   1.0 mph 88 % 0.00 in
06:03 54.1 °F 50.9 °F 29.91 in Calm   1.0 mph 89 % 0.00 in
06:08 54.0 °F 50.7 °F 29.91 in Calm   1.0 mph 89 % 0.00 in
06:13 54.0 °F 50.7 °F 29.91 in Calm   1.0 mph 89 % 0.00 in
06:18 54.0 °F 51.1 °F 29.91 in Calm   1.0 mph 90 % 0.00 in
06:33 53.6 °F 50.7 °F 29.91 in Calm   1.0 mph 90 % 0.00 in
06:38 53.4 °F 50.5 °F 29.91 in Calm   1.0 mph 90 % 0.00 in
06:43 53.2 °F 50.7 °F 29.91 in Calm   1.0 mph 91 % 0.00 in
06:48 53.2 °F 50.7 °F 29.91 in Calm   1.0 mph 91 % 0.00 in
06:53 53.2 °F 50.7 °F 29.91 in Calm   1.0 mph 91 % 0.00 in
06:58 53.2 °F 50.9 °F 29.91 in Calm   1.0 mph 92 % 0.00 in
07:00 53.2 °F 50.9 °F 29.91 in Calm   1.0 mph 92 % 0.00 in
07:05 53.2 °F 50.9 °F 29.91 in Calm   1.0 mph 92 % 0.00 in
07:15 53.4 °F 51.1 °F 29.91 in Calm   1.0 mph 92 % 0.00 in
07:20 53.4 °F 51.1 °F 29.91 in Calm   1.0 mph 92 % 0.00 in
07:25 53.6 °F 51.3 °F 29.91 in Calm   1.0 mph 92 % 0.00 in
07:35 53.8 °F 51.4 °F 29.91 in Calm   1.0 mph 92 % 0.00 in
07:40 54.1 °F 51.8 °F 29.91 in Calm   1.0 mph 92 % 0.00 in
07:45 54.7 °F 52.7 °F 29.92 in Calm   1.0 mph 93 % 0.00 in
07:50 55.2 °F 53.2 °F 29.92 in NNE 1.0 mph 1.0 mph 93 % 0.00 in
07:56 55.9 °F 53.6 °F 29.91 in Calm   1.0 mph 92 % 0.00 in
08:01 56.8 °F 54.5 °F 29.92 in Calm   1.0 mph 92 % 0.00 in
08:06 57.7 °F 55.2 °F 29.92 in Calm   1.0 mph 91 % 0.00 in
08:11 58.5 °F 55.6 °F 29.92 in North 1.0 mph 2.0 mph 90 % 0.00 in
08:16 59.0 °F 55.4 °F 29.92 in Calm   2.0 mph 88 % 0.00 in
08:21 59.7 °F 56.1 °F 29.92 in Calm   2.0 mph 88 % 0.00 in
08:26 61.0 °F 56.8 °F 29.92 in Calm   2.0 mph 86 % 0.00 in
08:31 61.2 °F 56.7 °F 29.91 in ESE 1.0 mph 3.0 mph 85 % 0.00 in
08:32 61.2 °F 56.7 °F 29.91 in Calm   3.0 mph 85 % 0.00 in
08:37 61.2 °F 56.3 °F 29.92 in East 1.0 mph 3.0 mph 84 % 0.00 in
08:42 61.2 °F 57.0 °F 29.92 in Calm   3.0 mph 86 % 0.00 in
08:57 62.8 °F 58.3 °F 29.92 in ESE 1.0 mph 2.0 mph 85 % 0.00 in
09:02 63.3 °F 59.0 °F 29.93 in Calm   2.0 mph 86 % 0.00 in
09:07 64.6 °F 59.9 °F 29.93 in Calm   2.0 mph 85 % 0.00 in
09:12 65.7 °F 60.6 °F 29.93 in Calm   2.0 mph 84 % 0.00 in
09:17 66.6 °F 60.6 °F 29.93 in Calm   2.0 mph 81 % 0.00 in
09:22 66.9 °F 60.6 °F 29.93 in Calm   2.0 mph 80 % 0.00 in
09:27 67.5 °F 61.2 °F 29.93 in SSE 2.0 mph 2.0 mph 80 % 0.00 in
09:32 67.6 °F 61.0 °F 29.93 in East 1.0 mph 2.0 mph 79 % 0.00 in
09:37 68.0 °F 61.9 °F 29.93 in Calm   3.0 mph 81 % 0.00 in
09:42 68.5 °F 61.7 °F 29.93 in Calm   3.0 mph 79 % 0.00 in
09:47 69.1 °F 62.2 °F 29.93 in ESE 2.0 mph 3.0 mph 79 % 0.00 in
09:52 68.9 °F 62.4 °F 29.93 in Calm   4.0 mph 80 % 0.00 in
10:02 69.1 °F 63.0 °F 29.92 in Calm   5.0 mph 81 % 0.00 in
10:07 69.1 °F 63.0 °F 29.92 in SSW 3.0 mph 5.0 mph 81 % 0.00 in
10:17 69.6 °F 63.5 °F 29.92 in ESE 2.0 mph 4.0 mph 81 % 0.00 in
10:28 70.0 °F 63.9 °F 29.91 in SSE 4.0 mph 6.0 mph 81 % 0.00 in
10:33 70.3 °F 64.6 °F 29.91 in South 2.0 mph 6.0 mph 82 % 0.00 in
10:43 71.8 °F 64.9 °F 29.90 in SE 3.0 mph 6.0 mph 79 % 0.00 in
10:53 71.8 °F 64.6 °F 29.90 in SSE 5.0 mph 6.0 mph 78 % 0.00 in
10:58 71.8 °F 64.6 °F 29.89 in SW 3.0 mph 10.0 mph 78 % 0.00 in
11:03 72.0 °F 64.4 °F 29.90 in SSE 6.0 mph 10.0 mph 77 % 0.00 in
11:08 71.6 °F 64.0 °F 29.90 in South 3.0 mph 10.0 mph 77 % 0.00 in
11:13 71.6 °F 63.7 °F 29.89 in SSE 3.0 mph 9.0 mph 76 % 0.00 in
11:28 71.2 °F 63.7 °F 29.89 in SSW 5.0 mph 8.0 mph 77 % 0.00 in
11:33 71.2 °F 63.7 °F 29.88 in South 2.0 mph 8.0 mph 77 % 0.00 in
11:38 71.2 °F 63.7 °F 29.88 in SSE 8.0 mph 8.0 mph 77 % 0.00 in
11:48 72.0 °F 64.4 °F 29.88 in WSW 2.0 mph 8.0 mph 77 % 0.00 in
11:53 72.3 °F 63.9 °F 29.88 in South 4.0 mph 8.0 mph 75 % 0.00 in
12:03 72.3 °F 64.4 °F 29.88 in SW 4.0 mph 9.0 mph 76 % 0.00 in
12:08 72.3 °F 64.4 °F 29.87 in SE 1.0 mph 9.0 mph 76 % 0.00 in
12:13 72.3 °F 64.4 °F 29.87 in South 2.0 mph 9.0 mph 76 % 0.00 in
12:18 72.7 °F 64.8 °F 29.87 in SSW 3.0 mph 8.0 mph 76 % 0.00 in
12:23 73.0 °F 64.2 °F 29.87 in SSE 1.0 mph 8.0 mph 74 % 0.00 in
12:28 73.2 °F 64.0 °F 29.86 in SSW 4.0 mph 7.0 mph 73 % 0.00 in
12:33 73.2 °F 63.7 °F 29.86 in SW 2.0 mph 6.0 mph 72 % 0.00 in
12:38 73.2 °F 63.7 °F 29.86 in SW 2.0 mph 6.0 mph 72 % 0.00 in
12:43 73.2 °F 64.0 °F 29.86 in South 2.0 mph 6.0 mph 73 % 0.00 in
13:03 74.7 °F 64.6 °F 29.85 in Calm   4.0 mph 71 % 0.00 in
13:09 75.0 °F 65.3 °F 29.85 in Calm   4.0 mph 72 % 0.00 in
13:14 75.6 °F 64.8 °F 29.85 in WSW 2.0 mph 4.0 mph 69 % 0.00 in
13:19 75.9 °F 64.9 °F 29.85 in SE 2.0 mph 4.0 mph 69 % 0.00 in
13:29 75.4 °F 64.6 °F 29.86 in NW 2.0 mph 4.0 mph 69 % 0.00 in
13:34 75.6 °F 64.8 °F 29.86 in SSW 1.0 mph 4.0 mph 69 % 0.00 in
13:39 75.6 °F 64.2 °F 29.86 in SW 1.0 mph 4.0 mph 68 % 0.00 in
13:44 75.7 °F 64.8 °F 29.86 in Calm   5.0 mph 69 % 0.00 in
13:54 76.3 °F 64.0 °F 29.86 in ESE 1.0 mph 5.0 mph 66 % 0.00 in
13:59 76.1 °F 64.4 °F 29.86 in SE 1.0 mph 2.0 mph 67 % 0.00 in
14:04 76.1 °F 64.4 °F 29.86 in Calm   2.0 mph 67 % 0.00 in
14:09 76.5 °F 64.2 °F 29.85 in Calm   4.0 mph 66 % 0.00 in
14:14 76.6 °F 64.4 °F 29.85 in SSE 1.0 mph 4.0 mph 66 % 0.00 in
14:29 75.7 °F 63.5 °F 29.85 in Calm   4.0 mph 66 % 0.00 in
14:39 76.8 °F 64.2 °F 29.85 in Calm   3.0 mph 65 % 0.00 in
14:49 77.2 °F 64.0 °F 29.85 in Calm   3.0 mph 64 % 0.00 in
14:54 77.2 °F 63.7 °F 29.85 in Calm   3.0 mph 63 % 0.00 in
15:04 76.6 °F 63.1 °F 29.85 in Calm   3.0 mph 63 % 0.00 in
15:09 76.5 °F 63.0 °F 29.86 in SW 1.0 mph 3.0 mph 63 % 0.00 in
15:11 76.5 °F 63.3 °F 29.86 in Calm   3.0 mph 64 % 0.00 in
15:16 76.5 °F 63.3 °F 29.85 in Calm   2.0 mph 64 % 0.00 in
15:26 76.1 °F 63.0 °F 29.85 in NW 2.0 mph 2.0 mph 64 % 0.00 in
15:31 75.6 °F 63.0 °F 29.85 in Calm   2.0 mph 65 % 0.00 in
15:46 75.9 °F 62.8 °F 29.86 in Calm   1.0 mph 64 % 0.00 in
15:51 75.7 °F 63.1 °F 29.86 in Calm   1.0 mph 65 % 0.00 in
15:56 75.6 °F 62.6 °F 29.85 in Calm     64 % 0.00 in
16:16 74.1 °F 64.0 °F 29.86 in Calm   4.0 mph 71 % 0.00 in
16:21 73.8 °F 64.2 °F 29.86 in NE 2.0 mph 4.0 mph 72 % 0.00 in
16:26 73.6 °F 64.0 °F 29.86 in Calm   4.0 mph 72 % 0.00 in
16:36 73.0 °F 64.2 °F 29.86 in NNW 4.0 mph 5.0 mph 74 % 0.00 in
16:41 73.0 °F 64.6 °F 29.87 in NNW 1.0 mph 5.0 mph 75 % 0.00 in
16:51 72.5 °F 64.6 °F 29.87 in Calm   5.0 mph 76 % 0.00 in
17:01 72.1 °F 64.6 °F 29.87 in East 1.0 mph 4.0 mph 77 % 0.00 in
17:06 72.0 °F 64.8 °F 29.87 in North 1.0 mph 4.0 mph 78 % 0.00 in
17:11 71.8 °F 64.6 °F 29.87 in East 3.0 mph 5.0 mph 78 % 0.00 in
17:16 71.6 °F 64.8 °F 29.88 in North 1.0 mph 5.0 mph 79 % 0.00 in
17:21 71.4 °F 64.6 °F 29.88 in NE 1.0 mph 5.0 mph 79 % 0.00 in
17:31 70.9 °F 64.4 °F 29.88 in Calm   4.0 mph 80 % 0.00 in
17:36 70.5 °F 64.4 °F 29.88 in East 2.0 mph 5.0 mph 81 % 0.00 in
17:41 70.3 °F 64.6 °F 29.88 in Calm   5.0 mph 82 % 0.00 in
17:46 70.2 °F 64.4 °F 29.88 in Calm   5.0 mph 82 % 0.00 in
17:51 70.0 °F 64.6 °F 29.88 in Calm   4.0 mph 83 % 0.00 in
17:56 69.8 °F 64.4 °F 29.89 in NE 3.0 mph 4.0 mph 83 % 0.00 in
18:01 69.6 °F 64.6 °F 29.89 in North 2.0 mph 7.0 mph 84 % 0.00 in
18:06 69.4 °F 64.8 °F 29.90 in North 1.0 mph 7.0 mph 85 % 0.00 in
18:07 69.4 °F 64.8 °F 29.90 in Calm   7.0 mph 85 % 0.00 in
18:12 69.1 °F 64.8 °F 29.90 in NNW 1.0 mph 7.0 mph 86 % 0.00 in
18:17 68.5 °F 64.2 °F 29.91 in NE 4.0 mph 9.0 mph 86 % 0.00 in
18:22 68.4 °F 64.4 °F 29.91 in North 2.0 mph 9.0 mph 87 % 0.00 in
18:27 67.8 °F 63.9 °F 29.91 in NW 1.0 mph 9.0 mph 87 % 0.00 in
18:32 67.6 °F 64.0 °F 29.91 in ENE 3.0 mph 9.0 mph 88 % 0.00 in
18:37 67.5 °F 63.9 °F 29.92 in ENE 6.0 mph 7.0 mph 88 % 0.00 in
18:47 66.9 °F 63.5 °F 29.92 in North 1.0 mph 10.0 mph 89 % 0.00 in
18:52 66.7 °F 63.3 °F 29.93 in ENE 2.0 mph 10.0 mph 89 % 0.00 in
18:57 66.4 °F 63.3 °F 29.93 in Calm   10.0 mph 90 % 0.00 in
19:02 66.2 °F 63.1 °F 29.94 in NNE 1.0 mph 7.0 mph 90 % 0.00 in
19:07 66.0 °F 63.0 °F 29.94 in NNW 1.0 mph 7.0 mph 90 % 0.00 in
19:12 65.8 °F 62.8 °F 29.95 in North 1.0 mph 5.0 mph 90 % 0.00 in
19:17 65.8 °F 63.1 °F 29.95 in NNE 2.0 mph 5.0 mph 91 % 0.00 in
19:22 65.7 °F 63.0 °F 29.95 in NNE 1.0 mph 7.0 mph 91 % 0.00 in
19:27 65.5 °F 62.8 °F 29.96 in NNE 3.0 mph 7.0 mph 91 % 0.00 in
19:32 65.5 °F 62.8 °F 29.96 in ENE 3.0 mph 7.0 mph 91 % 0.00 in
19:47 64.9 °F 62.2 °F 29.97 in NNE 4.0 mph 12.0 mph 91 % 0.00 in
19:52 64.8 °F 62.1 °F 29.97 in NNW 4.0 mph 12.0 mph 91 % 0.00 in
19:57 64.6 °F 61.9 °F 29.98 in NNW 5.0 mph 12.0 mph 91 % 0.00 in
20:02 64.4 °F 61.7 °F 29.98 in North 7.0 mph 10.0 mph 91 % 0.00 in
20:07 64.2 °F 61.5 °F 29.98 in NNE 4.0 mph 11.0 mph 91 % 0.00 in
20:17 64.2 °F 61.9 °F 29.99 in North 1.0 mph 11.0 mph 92 % 0.00 in
20:22 64.0 °F 61.7 °F 29.99 in NNE 3.0 mph 10.0 mph 92 % 0.00 in
20:32 64.0 °F 61.7 °F 29.99 in East 4.0 mph 9.0 mph 92 % 0.00 in
20:38 63.9 °F 61.5 °F 30.00 in North 4.0 mph 11.0 mph 92 % 0.00 in
20:43 63.7 °F 61.3 °F 30.00 in ENE 1.0 mph 11.0 mph 92 % 0.00 in
20:48 63.7 °F 61.3 °F 30.00 in ENE 3.0 mph 11.0 mph 92 % 0.00 in
20:53 63.7 °F 61.0 °F 30.00 in NNW 3.0 mph 9.0 mph 91 % 0.00 in
20:58 63.5 °F 60.8 °F 30.01 in NNW 3.0 mph 10.0 mph 91 % 0.00 in
21:03 63.3 °F 60.6 °F 30.01 in East 3.0 mph 10.0 mph 91 % 0.00 in
21:13 63.3 °F 60.6 °F 30.01 in NNW 2.0 mph 8.0 mph 91 % 0.00 in
21:18 63.3 °F 60.6 °F 30.01 in NNE 2.0 mph 8.0 mph 91 % 0.00 in
21:23 63.3 °F 60.6 °F 30.01 in NNE 1.0 mph 8.0 mph 91 % 0.00 in
21:24 63.3 °F 60.6 °F 30.01 in North 2.0 mph 8.0 mph 91 % 0.00 in
21:28 63.1 °F 60.4 °F 30.01 in NNE 1.0 mph 7.0 mph 91 % 0.00 in
21:33 63.0 °F 60.3 °F 30.01 in North 1.0 mph 6.0 mph 91 % 0.00 in
21:36 63.0 °F 60.3 °F 30.01 in NE 2.0 mph 7.0 mph 91 % 0.00 in
21:41 62.8 °F 60.4 °F 30.02 in NNE 2.0 mph 8.0 mph 92 % 0.00 in
21:46 62.4 °F 59.7 °F 30.02 in NNE 2.0 mph 10.0 mph 91 % 0.00 in
22:01 62.4 °F 59.7 °F 30.04 in North 2.0 mph 9.0 mph 91 % 0.00 in
22:06 62.4 °F 59.4 °F 30.04 in North 3.0 mph 9.0 mph 90 % 0.00 in
22:11 62.2 °F 59.2 °F 30.04 in NW 1.0 mph 7.0 mph 90 % 0.00 in
22:16 62.1 °F 59.2 °F 30.05 in North 1.0 mph 7.0 mph 90 % 0.00 in
22:21 62.1 °F 59.2 °F 30.05 in NNW 1.0 mph 7.0 mph 90 % 0.00 in
22:31 61.9 °F 59.0 °F 30.06 in NNW 1.0 mph 6.0 mph 90 % 0.00 in
22:56 61.9 °F 59.0 °F 30.06 in North 6.0 mph 7.0 mph 90 % 0.00 in
23:01 61.9 °F 58.6 °F 30.06 in SE 1.0 mph 8.0 mph 89 % 0.00 in
23:06 61.9 °F 58.6 °F 30.06 in NE 1.0 mph 8.0 mph 89 % 0.00 in
23:16 61.9 °F 58.6 °F 30.07 in North 2.0 mph 9.0 mph 89 % 0.00 in
23:26 61.9 °F 58.6 °F 30.06 in NNE 3.0 mph 9.0 mph 89 % 0.00 in
23:31 61.7 °F 58.5 °F 30.06 in Calm   9.0 mph 89 % 0.00 in
23:36 61.5 °F 58.3 °F 30.06 in North 1.0 mph 7.0 mph 89 % 0.00 in
23:41 61.3 °F 58.1 °F 30.06 in NNW 1.0 mph 7.0 mph 89 % 0.00 in
23:46 61.3 °F 57.7 °F 30.06 in Calm   5.0 mph 88 % 0.00 in
23:51 61.2 °F 57.6 °F 30.06 in NW 2.0 mph 5.0 mph 88 % 0.00 in
23:56 61.0 °F 57.7 °F 30.07 in NNE 1.0 mph 6.0 mph 89 % 0.00 in
Spring, Texas: Villages of Bridgestone
Compliments of Weather Underground - 2.5 mb

Script developed by  Jim McMurry - jmcmurry@mwt.net Adapted for the template by  Wim van der Kuil - Leuven-Template.eu

You find our weather info also at:

UK Metoffice

WeatherCloud

Weather Underground

Mid-South Weather Network

AWEKAS

Citizen Weather Observer Program (CWOP)

HAMweather, WeatherForYou, PWS Weather

Equipment we use:

Weather-station
Davis Vantage Vue

Weather-program
Meteohub

Weather-server
Debian 7.9 x86 (Guest)

Provider
DreamHost

Davis Vantage Vue

Meteohub

Debian 7.9 x86 (Guest)

DreamHost